sensor_id;sensor_type;location;lat;lon;timestamp;pressure;altitude;pressure_sealevel;temperature;humidity
51067;BME280;37112;45.892;-123.962;2023-03-14T00:00:37;100901.08;;;9.94;69.39
51067;BME280;37112;45.892;-123.962;2023-03-14T00:03:01;100897.21;;;10.04;69.71
51067;BME280;37112;45.892;-123.962;2023-03-14T00:05:15;100900.80;;;10.12;69.27
51067;BME280;37112;45.892;-123.962;2023-03-14T00:07:28;100902.90;;;10.15;68.90
51067;BME280;37112;45.892;-123.962;2023-03-14T00:09:45;100905.22;;;10.10;67.76
51067;BME280;37112;45.892;-123.962;2023-03-14T00:11:58;100903.64;;;9.95;67.44
51067;BME280;37112;45.892;-123.962;2023-03-14T00:14:13;100904.64;;;9.82;67.94
51067;BME280;37112;45.892;-123.962;2023-03-14T00:16:27;100903.64;;;9.69;67.96
51067;BME280;37112;45.892;-123.962;2023-03-14T00:18:42;100905.34;;;9.59;68.06
51067;BME280;37112;45.892;-123.962;2023-03-14T00:20:56;100904.34;;;9.55;68.62
51067;BME280;37112;45.892;-123.962;2023-03-14T00:23:09;100901.48;;;9.58;69.14
51067;BME280;37112;45.892;-123.962;2023-03-14T00:25:23;100902.60;;;9.63;69.61
51067;BME280;37112;45.892;-123.962;2023-03-14T00:27:37;100902.77;;;9.63;69.34
51067;BME280;37112;45.892;-123.962;2023-03-14T00:29:50;100905.36;;;9.56;68.63
51067;BME280;37112;45.892;-123.962;2023-03-14T00:32:04;100906.61;;;9.43;68.85
51067;BME280;37112;45.892;-123.962;2023-03-14T00:34:21;100903.88;;;9.33;69.29
51067;BME280;37112;45.892;-123.962;2023-03-14T00:36:34;100905.67;;;9.23;69.63
51067;BME280;37112;45.892;-123.962;2023-03-14T00:38:48;100905.83;;;9.15;70.05
51067;BME280;37112;45.892;-123.962;2023-03-14T00:41:05;100910.32;;;9.07;70.06
51067;BME280;37112;45.892;-123.962;2023-03-14T00:43:18;100909.11;;;8.98;69.54
51067;BME280;37112;45.892;-123.962;2023-03-14T00:45:33;100914.20;;;8.83;68.07
51067;BME280;37112;45.892;-123.962;2023-03-14T00:47:46;100917.48;;;8.76;68.31
51067;BME280;37112;45.892;-123.962;2023-03-14T00:50:00;100913.88;;;8.74;69.04
51067;BME280;37112;45.892;-123.962;2023-03-14T00:52:14;100916.69;;;8.74;69.24
51067;BME280;37112;45.892;-123.962;2023-03-14T00:54:27;100921.20;;;8.72;69.53
51067;BME280;37112;45.892;-123.962;2023-03-14T00:56:40;100925.16;;;8.68;69.47
51067;BME280;37112;45.892;-123.962;2023-03-14T00:58:55;100929.84;;;8.63;69.95
51067;BME280;37112;45.892;-123.962;2023-03-14T01:01:13;100928.70;;;8.59;70.09
51067;BME280;37112;45.892;-123.962;2023-03-14T01:03:27;100926.36;;;8.53;69.91
51067;BME280;37112;45.892;-123.962;2023-03-14T01:05:40;100925.92;;;8.48;70.42
51067;BME280;37112;45.892;-123.962;2023-03-14T01:07:54;100924.64;;;8.49;70.86
51067;BME280;37112;45.892;-123.962;2023-03-14T01:10:11;100920.30;;;8.50;71.30
51067;BME280;37112;45.892;-123.962;2023-03-14T01:12:24;100924.88;;;8.51;70.97
51067;BME280;37112;45.892;-123.962;2023-03-14T01:14:38;100926.81;;;8.48;71.29
51067;BME280;37112;45.892;-123.962;2023-03-14T01:16:51;100925.02;;;8.52;72.22
51067;BME280;37112;45.892;-123.962;2023-03-14T01:19:05;100922.70;;;8.58;72.94
51067;BME280;37112;45.892;-123.962;2023-03-14T01:21:20;100921.85;;;8.64;73.03
51067;BME280;37112;45.892;-123.962;2023-03-14T01:23:34;100918.38;;;8.69;73.56
51067;BME280;37112;45.892;-123.962;2023-03-14T01:25:47;100918.51;;;8.70;73.17
51067;BME280;37112;45.892;-123.962;2023-03-14T01:28:01;100927.00;;;8.67;73.12
51067;BME280;37112;45.892;-123.962;2023-03-14T01:30:15;100927.17;;;8.60;72.25
51067;BME280;37112;45.892;-123.962;2023-03-14T01:32:29;100928.23;;;8.51;71.95
51067;BME280;37112;45.892;-123.962;2023-03-14T01:34:44;100935.27;;;8.42;71.71
51067;BME280;37112;45.892;-123.962;2023-03-14T01:36:57;100934.38;;;8.32;71.23
51067;BME280;37112;45.892;-123.962;2023-03-14T01:39:11;100941.93;;;8.24;70.80
51067;BME280;37112;45.892;-123.962;2023-03-14T01:41:26;100942.02;;;8.16;70.37
51067;BME280;37112;45.892;-123.962;2023-03-14T01:43:40;100946.35;;;8.10;70.68
51067;BME280;37112;45.892;-123.962;2023-03-14T01:46:22;100952.71;;;8.04;70.36
51067;BME280;37112;45.892;-123.962;2023-03-14T01:48:39;100949.63;;;7.98;70.52
51067;BME280;37112;45.892;-123.962;2023-03-14T01:50:57;100957.86;;;7.97;70.99
51067;BME280;37112;45.892;-123.962;2023-03-14T01:53:11;100962.15;;;7.92;70.78
51067;BME280;37112;45.892;-123.962;2023-03-14T01:55:27;100964.11;;;7.85;70.80
51067;BME280;37112;45.892;-123.962;2023-03-14T01:57:42;100964.27;;;7.79;71.06
51067;BME280;37112;45.892;-123.962;2023-03-14T01:59:59;100971.15;;;7.76;71.52
51067;BME280;37112;45.892;-123.962;2023-03-14T02:02:21;100970.98;;;7.72;71.71
51067;BME280;37112;45.892;-123.962;2023-03-14T02:04:37;100974.09;;;7.70;71.79
51067;BME280;37112;45.892;-123.962;2023-03-14T02:06:55;100973.81;;;7.66;71.77
51067;BME280;37112;45.892;-123.962;2023-03-14T02:09:14;100973.71;;;7.61;71.76
51067;BME280;37112;45.892;-123.962;2023-03-14T02:11:31;100979.02;;;7.54;71.80
51067;BME280;37112;45.892;-123.962;2023-03-14T02:13:49;100980.95;;;7.47;71.72
51067;BME280;37112;45.892;-123.962;2023-03-14T02:16:28;100984.82;;;7.37;71.79
51067;BME280;37112;45.892;-123.962;2023-03-14T02:19:02;100986.73;;;7.30;71.63
51067;BME280;37112;45.892;-123.962;2023-03-14T02:21:52;100990.30;;;7.19;71.54
51067;BME280;37112;45.892;-123.962;2023-03-14T02:24:15;100992.95;;;7.12;71.63
51067;BME280;37112;45.892;-123.962;2023-03-14T02:26:39;100995.48;;;7.03;71.71
51067;BME280;37112;45.892;-123.962;2023-03-14T02:28:54;101000.04;;;6.96;71.96
51067;BME280;37112;45.892;-123.962;2023-03-14T02:31:09;101004.31;;;6.91;71.89
51067;BME280;37112;45.892;-123.962;2023-03-14T02:33:24;101006.61;;;6.88;72.07
51067;BME280;37112;45.892;-123.962;2023-03-14T02:35:40;101008.00;;;6.85;72.25
51067;BME280;37112;45.892;-123.962;2023-03-14T02:37:59;101012.17;;;6.82;72.36
51067;BME280;37112;45.892;-123.962;2023-03-14T02:40:14;101013.77;;;6.79;72.43
51067;BME280;37112;45.892;-123.962;2023-03-14T02:42:29;101017.30;;;6.75;72.48
51067;BME280;37112;45.892;-123.962;2023-03-14T02:44:53;101020.35;;;6.70;72.60
51067;BME280;37112;45.892;-123.962;2023-03-14T02:47:08;101021.52;;;6.68;72.67
51067;BME280;37112;45.892;-123.962;2023-03-14T02:49:22;101020.30;;;6.67;72.90
51067;BME280;37112;45.892;-123.962;2023-03-14T02:51:35;101026.50;;;6.66;73.28
51067;BME280;37112;45.892;-123.962;2023-03-14T02:53:50;101028.15;;;6.65;73.37
51067;BME280;37112;45.892;-123.962;2023-03-14T02:56:04;101030.11;;;6.65;73.51
51067;BME280;37112;45.892;-123.962;2023-03-14T02:58:18;101031.99;;;6.66;73.84
51067;BME280;37112;45.892;-123.962;2023-03-14T03:00:34;101036.92;;;6.66;74.11
51067;BME280;37112;45.892;-123.962;2023-03-14T03:02:49;101039.84;;;6.68;74.20
51067;BME280;37112;45.892;-123.962;2023-03-14T03:05:03;101044.23;;;6.68;74.44
51067;BME280;37112;45.892;-123.962;2023-03-14T03:07:17;101047.76;;;6.68;74.51
51067;BME280;37112;45.892;-123.962;2023-03-14T03:09:31;101049.31;;;6.70;74.85
51067;BME280;37112;45.892;-123.962;2023-03-14T03:11:44;101056.48;;;6.71;74.91
51067;BME280;37112;45.892;-123.962;2023-03-14T03:14:01;101056.05;;;6.73;75.08
51067;BME280;37112;45.892;-123.962;2023-03-14T03:16:15;101055.48;;;6.73;75.25
51067;BME280;37112;45.892;-123.962;2023-03-14T03:18:29;101057.58;;;6.74;75.23
51067;BME280;37112;45.892;-123.962;2023-03-14T03:20:41;101060.65;;;6.76;75.44
51067;BME280;37112;45.892;-123.962;2023-03-14T03:22:54;101060.35;;;6.79;75.42
51067;BME280;37112;45.892;-123.962;2023-03-14T03:25:09;101058.41;;;6.79;75.30
51067;BME280;37112;45.892;-123.962;2023-03-14T03:27:23;101058.83;;;6.78;75.35
51067;BME280;37112;45.892;-123.962;2023-03-14T03:29:36;101058.03;;;6.76;75.18
51067;BME280;37112;45.892;-123.962;2023-03-14T03:31:50;101062.82;;;6.72;75.06
51067;BME280;37112;45.892;-123.962;2023-03-14T03:34:03;101063.81;;;6.68;75.19
51067;BME280;37112;45.892;-123.962;2023-03-14T03:36:17;101068.71;;;6.66;75.08
51067;BME280;37112;45.892;-123.962;2023-03-14T03:38:33;101072.77;;;6.62;75.20
51067;BME280;37112;45.892;-123.962;2023-03-14T03:40:46;101077.46;;;6.60;75.09
51067;BME280;37112;45.892;-123.962;2023-03-14T03:42:59;101081.70;;;6.56;75.18
51067;BME280;37112;45.892;-123.962;2023-03-14T03:45:17;101081.16;;;6.52;75.09
51067;BME280;37112;45.892;-123.962;2023-03-14T03:47:34;101080.32;;;6.47;75.19
51067;BME280;37112;45.892;-123.962;2023-03-14T03:49:47;101080.11;;;6.43;75.31
51067;BME280;37112;45.892;-123.962;2023-03-14T03:52:00;101083.11;;;6.40;75.21
51067;BME280;37112;45.892;-123.962;2023-03-14T03:54:13;101083.98;;;6.36;75.15
51067;BME280;37112;45.892;-123.962;2023-03-14T03:56:26;101085.08;;;6.32;75.14
51067;BME280;37112;45.892;-123.962;2023-03-14T03:58:39;101083.98;;;6.28;75.17
51067;BME280;37112;45.892;-123.962;2023-03-14T04:00:52;101085.21;;;6.24;75.19
51067;BME280;37112;45.892;-123.962;2023-03-14T04:03:06;101088.15;;;6.22;75.21
51067;BME280;37112;45.892;-123.962;2023-03-14T04:05:20;101090.92;;;6.19;75.21
51067;BME280;37112;45.892;-123.962;2023-03-14T04:07:43;101092.53;;;6.14;75.12
51067;BME280;37112;45.892;-123.962;2023-03-14T04:10:01;101093.31;;;6.08;75.41
51067;BME280;37112;45.892;-123.962;2023-03-14T04:12:20;101094.23;;;6.04;75.17
51067;BME280;37112;45.892;-123.962;2023-03-14T04:14:40;101096.20;;;5.99;75.36
51067;BME280;37112;45.892;-123.962;2023-03-14T04:16:58;101098.48;;;5.95;75.42
51067;BME280;37112;45.892;-123.962;2023-03-14T04:19:13;101103.95;;;5.90;75.43
51067;BME280;37112;45.892;-123.962;2023-03-14T04:21:27;101107.19;;;5.83;75.43
51067;BME280;37112;45.892;-123.962;2023-03-14T04:23:40;101108.88;;;5.77;75.31
51067;BME280;37112;45.892;-123.962;2023-03-14T04:25:55;101106.67;;;5.71;75.42
51067;BME280;37112;45.892;-123.962;2023-03-14T04:28:10;101110.21;;;5.66;75.60
51067;BME280;37112;45.892;-123.962;2023-03-14T04:30:23;101113.39;;;5.62;75.59
51067;BME280;37112;45.892;-123.962;2023-03-14T04:32:43;101119.67;;;5.58;75.81
51067;BME280;37112;45.892;-123.962;2023-03-14T04:34:59;101125.06;;;5.56;76.01
51067;BME280;37112;45.892;-123.962;2023-03-14T04:37:12;101127.58;;;5.55;76.16
51067;BME280;37112;45.892;-123.962;2023-03-14T04:39:26;101130.97;;;5.54;76.16
51067;BME280;37112;45.892;-123.962;2023-03-14T04:41:52;101133.48;;;5.52;76.21
51067;BME280;37112;45.892;-123.962;2023-03-14T04:44:07;101136.74;;;5.50;76.24
51067;BME280;37112;45.892;-123.962;2023-03-14T04:46:20;101133.66;;;5.48;76.23
51067;BME280;37112;45.892;-123.962;2023-03-14T04:48:33;101140.17;;;5.44;76.27
51067;BME280;37112;45.892;-123.962;2023-03-14T04:50:48;101141.64;;;5.42;76.41
51067;BME280;37112;45.892;-123.962;2023-03-14T04:53:02;101144.41;;;5.39;76.60
51067;BME280;37112;45.892;-123.962;2023-03-14T04:55:17;101148.36;;;5.38;76.73
51067;BME280;37112;45.892;-123.962;2023-03-14T04:57:35;101151.94;;;5.35;76.98
51067;BME280;37112;45.892;-123.962;2023-03-14T04:59:50;101151.08;;;5.35;77.09
51067;BME280;37112;45.892;-123.962;2023-03-14T05:02:26;101155.65;;;5.35;77.47
51067;BME280;37112;45.892;-123.962;2023-03-14T05:05:10;101155.56;;;5.38;78.20
51067;BME280;37112;45.892;-123.962;2023-03-14T05:07:46;101158.36;;;5.43;78.43
51067;BME280;37112;45.892;-123.962;2023-03-14T05:10:20;101161.00;;;5.47;78.85
51067;BME280;37112;45.892;-123.962;2023-03-14T05:12:52;101161.50;;;5.52;79.03
51067;BME280;37112;45.892;-123.962;2023-03-14T05:15:23;101163.26;;;5.57;79.22
51067;BME280;37112;45.892;-123.962;2023-03-14T05:17:56;101167.70;;;5.60;79.15
51067;BME280;37112;45.892;-123.962;2023-03-14T05:20:26;101169.21;;;5.62;79.35
51067;BME280;37112;45.892;-123.962;2023-03-14T05:23:00;101170.23;;;5.63;79.37
51067;BME280;37112;45.892;-123.962;2023-03-14T05:25:48;101173.03;;;5.64;79.46
51067;BME280;37112;45.892;-123.962;2023-03-14T05:28:30;101173.70;;;5.65;79.35
51067;BME280;37112;45.892;-123.962;2023-03-14T05:31:01;101174.80;;;5.64;79.26
51067;BME280;37112;45.892;-123.962;2023-03-14T05:33:39;101175.41;;;5.62;79.07
51067;BME280;37112;45.892;-123.962;2023-03-14T05:36:11;101175.84;;;5.59;79.07
51067;BME280;37112;45.892;-123.962;2023-03-14T05:38:51;101178.61;;;5.56;78.91
51067;BME280;37112;45.892;-123.962;2023-03-14T05:41:19;101181.32;;;5.54;79.12
51067;BME280;37112;45.892;-123.962;2023-03-14T05:43:51;101174.10;;;5.54;79.10
51067;BME280;37112;45.892;-123.962;2023-03-14T05:46:37;101178.90;;;5.53;79.11
51067;BME280;37112;45.892;-123.962;2023-03-14T05:49:09;101177.66;;;5.53;79.13
51067;BME280;37112;45.892;-123.962;2023-03-14T05:51:46;101178.09;;;5.51;79.19
51067;BME280;37112;45.892;-123.962;2023-03-14T05:54:13;101173.44;;;5.49;79.04
51067;BME280;37112;45.892;-123.962;2023-03-14T05:56:58;101175.50;;;5.46;79.07
51067;BME280;37112;45.892;-123.962;2023-03-14T05:59:11;101179.60;;;5.44;79.05
51067;BME280;37112;45.892;-123.962;2023-03-14T06:01:42;101181.38;;;5.43;79.05
51067;BME280;37112;45.892;-123.962;2023-03-14T06:03:58;101178.23;;;5.43;79.06
51067;BME280;37112;45.892;-123.962;2023-03-14T06:06:12;101180.62;;;5.41;78.85
51067;BME280;37112;45.892;-123.962;2023-03-14T06:08:25;101183.72;;;5.38;78.92
51067;BME280;37112;45.892;-123.962;2023-03-14T06:10:39;101185.69;;;5.37;79.00
51067;BME280;37112;45.892;-123.962;2023-03-14T06:12:52;101183.81;;;5.35;78.93
51067;BME280;37112;45.892;-123.962;2023-03-14T06:15:09;101181.78;;;5.34;78.89
51067;BME280;37112;45.892;-123.962;2023-03-14T06:17:24;101181.45;;;5.33;79.09
51067;BME280;37112;45.892;-123.962;2023-03-14T06:19:44;101186.58;;;5.33;79.05
51067;BME280;37112;45.892;-123.962;2023-03-14T06:21:57;101188.48;;;5.34;79.30
51067;BME280;37112;45.892;-123.962;2023-03-14T06:24:10;101187.73;;;5.35;79.36
51067;BME280;37112;45.892;-123.962;2023-03-14T06:26:27;101186.61;;;5.36;79.55
51067;BME280;37112;45.892;-123.962;2023-03-14T06:28:40;101195.34;;;5.38;79.68
51067;BME280;37112;45.892;-123.962;2023-03-14T06:30:53;101190.86;;;5.40;79.64
51067;BME280;37112;45.892;-123.962;2023-03-14T06:33:07;101192.22;;;5.41;79.87
51067;BME280;37112;45.892;-123.962;2023-03-14T06:35:22;101196.37;;;5.43;79.75
51067;BME280;37112;45.892;-123.962;2023-03-14T06:37:36;101198.44;;;5.45;79.66
51067;BME280;37112;45.892;-123.962;2023-03-14T06:39:53;101200.95;;;5.43;79.72
51067;BME280;37112;45.892;-123.962;2023-03-14T06:42:26;101202.02;;;5.43;79.75
51067;BME280;37112;45.892;-123.962;2023-03-14T06:44:39;101198.73;;;5.42;79.68
51067;BME280;37112;45.892;-123.962;2023-03-14T06:46:52;101202.98;;;5.41;79.65
51067;BME280;37112;45.892;-123.962;2023-03-14T06:49:05;101205.31;;;5.40;79.57
51067;BME280;37112;45.892;-123.962;2023-03-14T06:51:19;101204.14;;;5.39;79.52
51067;BME280;37112;45.892;-123.962;2023-03-14T06:53:33;101200.32;;;5.37;79.53
51067;BME280;37112;45.892;-123.962;2023-03-14T06:55:48;101201.26;;;5.35;79.65
51067;BME280;37112;45.892;-123.962;2023-03-14T06:58:02;101203.52;;;5.32;79.54
51067;BME280;37112;45.892;-123.962;2023-03-14T07:00:24;101203.09;;;5.28;79.62
51067;BME280;37112;45.892;-123.962;2023-03-14T07:02:38;101203.52;;;5.26;79.67
51067;BME280;37112;45.892;-123.962;2023-03-14T07:05:12;101207.05;;;5.26;79.85
51067;BME280;37112;45.892;-123.962;2023-03-14T07:07:25;101206.88;;;5.26;80.06
51067;BME280;37112;45.892;-123.962;2023-03-14T07:09:39;101209.29;;;5.27;80.10
51067;BME280;37112;45.892;-123.962;2023-03-14T07:11:53;101212.41;;;5.29;80.25
51067;BME280;37112;45.892;-123.962;2023-03-14T07:14:07;101210.06;;;5.30;80.36
51067;BME280;37112;45.892;-123.962;2023-03-14T07:16:23;101209.96;;;5.33;80.60
51067;BME280;37112;45.892;-123.962;2023-03-14T07:18:39;101210.96;;;5.35;80.54
51067;BME280;37112;45.892;-123.962;2023-03-14T07:20:52;101210.02;;;5.36;80.69
51067;BME280;37112;45.892;-123.962;2023-03-14T07:23:05;101206.47;;;5.38;80.69
51067;BME280;37112;45.892;-123.962;2023-03-14T07:25:23;101205.00;;;5.39;80.83
51067;BME280;37112;45.892;-123.962;2023-03-14T07:27:36;101206.88;;;5.40;80.96
51067;BME280;37112;45.892;-123.962;2023-03-14T07:29:50;101205.73;;;5.43;80.94
51067;BME280;37112;45.892;-123.962;2023-03-14T07:32:03;101204.96;;;5.45;80.97
51067;BME280;37112;45.892;-123.962;2023-03-14T07:34:16;101205.91;;;5.47;81.14
51067;BME280;37112;45.892;-123.962;2023-03-14T07:36:30;101209.17;;;5.49;81.19
51067;BME280;37112;45.892;-123.962;2023-03-14T07:38:44;101211.90;;;5.51;81.16
51067;BME280;37112;45.892;-123.962;2023-03-14T07:41:10;101212.05;;;5.52;81.25
51067;BME280;37112;45.892;-123.962;2023-03-14T07:44:02;101212.14;;;5.55;81.40
51067;BME280;37112;45.892;-123.962;2023-03-14T07:46:14;101213.14;;;5.56;81.78
51067;BME280;37112;45.892;-123.962;2023-03-14T07:48:28;101210.61;;;5.57;81.60
51067;BME280;37112;45.892;-123.962;2023-03-14T07:50:42;101211.78;;;5.59;81.67
51067;BME280;37112;45.892;-123.962;2023-03-14T07:52:56;101213.84;;;5.61;81.67
51067;BME280;37112;45.892;-123.962;2023-03-14T07:55:11;101215.20;;;5.62;81.69
51067;BME280;37112;45.892;-123.962;2023-03-14T07:57:24;101216.25;;;5.62;81.50
51067;BME280;37112;45.892;-123.962;2023-03-14T07:59:37;101216.57;;;5.63;81.52
51067;BME280;37112;45.892;-123.962;2023-03-14T08:01:51;101217.92;;;5.64;81.57
51067;BME280;37112;45.892;-123.962;2023-03-14T08:04:04;101218.38;;;5.66;81.58
51067;BME280;37112;45.892;-123.962;2023-03-14T08:06:17;101214.80;;;5.67;81.41
51067;BME280;37112;45.892;-123.962;2023-03-14T08:08:30;101218.30;;;5.68;81.47
51067;BME280;37112;45.892;-123.962;2023-03-14T08:10:44;101215.66;;;5.68;81.30
51067;BME280;37112;45.892;-123.962;2023-03-14T08:12:59;101221.00;;;5.67;81.17
51067;BME280;37112;45.892;-123.962;2023-03-14T08:15:14;101221.95;;;5.65;80.93
51067;BME280;37112;45.892;-123.962;2023-03-14T08:17:28;101224.88;;;5.62;80.81
51067;BME280;37112;45.892;-123.962;2023-03-14T08:19:43;101220.94;;;5.59;80.64
51067;BME280;37112;45.892;-123.962;2023-03-14T08:21:58;101220.88;;;5.56;80.57
51067;BME280;37112;45.892;-123.962;2023-03-14T08:24:11;101223.99;;;5.53;80.70
51067;BME280;37112;45.892;-123.962;2023-03-14T08:26:26;101220.90;;;5.51;80.60
51067;BME280;37112;45.892;-123.962;2023-03-14T08:28:39;101222.19;;;5.49;80.62
51067;BME280;37112;45.892;-123.962;2023-03-14T08:30:53;101218.70;;;5.49;80.77
51067;BME280;37112;45.892;-123.962;2023-03-14T08:33:09;101218.73;;;5.48;80.88
51067;BME280;37112;45.892;-123.962;2023-03-14T08:35:22;101220.48;;;5.48;80.92
51067;BME280;37112;45.892;-123.962;2023-03-14T08:37:36;101227.05;;;5.51;81.29
51067;BME280;37112;45.892;-123.962;2023-03-14T08:39:50;101228.20;;;5.54;81.11
51067;BME280;37112;45.892;-123.962;2023-03-14T08:42:03;101225.48;;;5.56;81.17
51067;BME280;37112;45.892;-123.962;2023-03-14T08:44:16;101222.95;;;5.57;81.18
51067;BME280;37112;45.892;-123.962;2023-03-14T08:46:29;101221.17;;;5.57;81.04
51067;BME280;37112;45.892;-123.962;2023-03-14T08:48:43;101221.51;;;5.58;81.00
51067;BME280;37112;45.892;-123.962;2023-03-14T08:50:56;101221.71;;;5.57;80.86
51067;BME280;37112;45.892;-123.962;2023-03-14T08:53:09;101229.58;;;5.55;80.58
51067;BME280;37112;45.892;-123.962;2023-03-14T08:55:23;101227.15;;;5.49;80.25
51067;BME280;37112;45.892;-123.962;2023-03-14T08:57:37;101231.91;;;5.44;80.18
51067;BME280;37112;45.892;-123.962;2023-03-14T08:59:51;101232.14;;;5.39;79.94
51067;BME280;37112;45.892;-123.962;2023-03-14T09:02:05;101234.58;;;5.34;79.97
51067;BME280;37112;45.892;-123.962;2023-03-14T09:04:22;101232.09;;;5.30;80.10
51067;BME280;37112;45.892;-123.962;2023-03-14T09:06:34;101233.11;;;5.26;80.02
51067;BME280;37112;45.892;-123.962;2023-03-14T09:08:47;101230.58;;;5.19;79.93
51067;BME280;37112;45.892;-123.962;2023-03-14T09:11:00;101229.27;;;5.11;79.80
51067;BME280;37112;45.892;-123.962;2023-03-14T09:13:14;101225.64;;;5.04;79.74
51067;BME280;37112;45.892;-123.962;2023-03-14T09:15:27;101228.54;;;4.97;79.81
51067;BME280;37112;45.892;-123.962;2023-03-14T09:17:40;101230.54;;;4.91;79.61
51067;BME280;37112;45.892;-123.962;2023-03-14T09:19:55;101231.21;;;4.87;79.90
51067;BME280;37112;45.892;-123.962;2023-03-14T09:22:09;101226.08;;;4.83;80.08
51067;BME280;37112;45.892;-123.962;2023-03-14T09:24:22;101225.73;;;4.78;80.03
51067;BME280;37112;45.892;-123.962;2023-03-14T09:26:35;101223.23;;;4.73;80.23
51067;BME280;37112;45.892;-123.962;2023-03-14T09:28:48;101221.98;;;4.69;80.29
51067;BME280;37112;45.892;-123.962;2023-03-14T09:31:08;101224.07;;;4.65;80.20
51067;BME280;37112;45.892;-123.962;2023-03-14T09:33:22;101224.58;;;4.61;80.41
51067;BME280;37112;45.892;-123.962;2023-03-14T09:35:36;101223.44;;;4.58;80.44
51067;BME280;37112;45.892;-123.962;2023-03-14T09:37:49;101219.02;;;4.53;80.53
51067;BME280;37112;45.892;-123.962;2023-03-14T09:40:02;101217.73;;;4.50;80.73
51067;BME280;37112;45.892;-123.962;2023-03-14T09:42:25;101219.57;;;4.48;80.89
51067;BME280;37112;45.892;-123.962;2023-03-14T09:44:42;101215.98;;;4.44;81.07
51067;BME280;37112;45.892;-123.962;2023-03-14T09:47:02;101216.77;;;4.42;81.19
51067;BME280;37112;45.892;-123.962;2023-03-14T09:49:21;101215.41;;;4.40;81.23
51067;BME280;37112;45.892;-123.962;2023-03-14T09:51:35;101211.14;;;4.37;81.35
51067;BME280;37112;45.892;-123.962;2023-03-14T09:53:50;101212.45;;;4.34;81.48
51067;BME280;37112;45.892;-123.962;2023-03-14T09:56:04;101209.59;;;4.31;81.45
51067;BME280;37112;45.892;-123.962;2023-03-14T09:58:23;101215.11;;;4.29;81.62
51067;BME280;37112;45.892;-123.962;2023-03-14T10:00:37;101213.25;;;4.27;81.63
51067;BME280;37112;45.892;-123.962;2023-03-14T10:02:53;101211.77;;;4.24;81.67
51067;BME280;37112;45.892;-123.962;2023-03-14T10:05:15;101208.87;;;4.21;81.86
51067;BME280;37112;45.892;-123.962;2023-03-14T10:07:31;101209.25;;;4.20;82.05
51067;BME280;37112;45.892;-123.962;2023-03-14T10:09:45;101210.37;;;4.18;82.16
51067;BME280;37112;45.892;-123.962;2023-03-14T10:12:00;101206.98;;;4.15;82.14
51067;BME280;37112;45.892;-123.962;2023-03-14T10:14:32;101201.45;;;4.11;82.01
51067;BME280;37112;45.892;-123.962;2023-03-14T10:16:59;101203.52;;;4.08;81.91
51067;BME280;37112;45.892;-123.962;2023-03-14T10:19:18;101202.59;;;4.04;81.95
51067;BME280;37112;45.892;-123.962;2023-03-14T10:21:32;101195.89;;;3.99;81.76
51067;BME280;37112;45.892;-123.962;2023-03-14T10:23:48;101198.38;;;3.93;81.90
51067;BME280;37112;45.892;-123.962;2023-03-14T10:26:07;101195.19;;;3.88;81.89
51067;BME280;37112;45.892;-123.962;2023-03-14T10:28:26;101193.04;;;3.84;82.21
51067;BME280;37112;45.892;-123.962;2023-03-14T10:30:46;101190.80;;;3.82;82.37
51067;BME280;37112;45.892;-123.962;2023-03-14T10:32:59;101190.36;;;3.80;82.42
51067;BME280;37112;45.892;-123.962;2023-03-14T10:35:24;101191.88;;;3.77;82.55
51067;BME280;37112;45.892;-123.962;2023-03-14T10:37:42;101195.81;;;3.74;82.58
51067;BME280;37112;45.892;-123.962;2023-03-14T10:39:58;101194.83;;;3.72;82.56
51067;BME280;37112;45.892;-123.962;2023-03-14T10:42:19;101192.30;;;3.69;82.63
51067;BME280;37112;45.892;-123.962;2023-03-14T10:44:34;101191.86;;;3.66;82.69
51067;BME280;37112;45.892;-123.962;2023-03-14T10:47:00;101188.06;;;3.63;82.73
51067;BME280;37112;45.892;-123.962;2023-03-14T10:49:27;101182.60;;;3.59;82.88
51067;BME280;37112;45.892;-123.962;2023-03-14T10:51:41;101185.46;;;3.56;83.07
51067;BME280;37112;45.892;-123.962;2023-03-14T10:54:00;101184.83;;;3.54;83.19
51067;BME280;37112;45.892;-123.962;2023-03-14T10:56:17;101183.95;;;3.54;83.35
51067;BME280;37112;45.892;-123.962;2023-03-14T10:58:32;101180.11;;;3.54;83.34
51067;BME280;37112;45.892;-123.962;2023-03-14T11:00:48;101175.88;;;3.54;83.41
51067;BME280;37112;45.892;-123.962;2023-03-14T11:03:12;101181.33;;;3.54;83.62
51067;BME280;37112;45.892;-123.962;2023-03-14T11:05:31;101177.96;;;3.55;83.74
51067;BME280;37112;45.892;-123.962;2023-03-14T11:07:49;101177.80;;;3.55;83.75
51067;BME280;37112;45.892;-123.962;2023-03-14T11:10:17;101175.71;;;3.54;83.72
51067;BME280;37112;45.892;-123.962;2023-03-14T11:12:44;101176.11;;;3.53;83.90
51067;BME280;37112;45.892;-123.962;2023-03-14T11:15:01;101175.77;;;3.52;83.85
51067;BME280;37112;45.892;-123.962;2023-03-14T11:17:19;101176.83;;;3.52;83.94
51067;BME280;37112;45.892;-123.962;2023-03-14T11:19:54;101174.02;;;3.52;84.14
51067;BME280;37112;45.892;-123.962;2023-03-14T11:22:17;101177.27;;;3.54;84.31
51067;BME280;37112;45.892;-123.962;2023-03-14T11:24:59;101178.30;;;3.55;84.42
51067;BME280;37112;45.892;-123.962;2023-03-14T11:27:21;101177.39;;;3.56;84.42
51067;BME280;37112;45.892;-123.962;2023-03-14T11:29:40;101175.47;;;3.56;84.44
51067;BME280;37112;45.892;-123.962;2023-03-14T11:31:55;101175.97;;;3.57;84.52
51067;BME280;37112;45.892;-123.962;2023-03-14T11:34:20;101172.77;;;3.59;84.89
51067;BME280;37112;45.892;-123.962;2023-03-14T11:36:41;101172.36;;;3.60;85.05
51067;BME280;37112;45.892;-123.962;2023-03-14T11:38:55;101173.58;;;3.61;84.99
51067;BME280;37112;45.892;-123.962;2023-03-14T11:41:14;101171.08;;;3.62;85.21